sensor_id;sensor_type;location;lat;lon;timestamp;P1;durP1;ratioP1;P2;durP2;ratioP2
18544;SDS011;9402;51.460;7.276;2022-07-26T00:01:28;1.20;;;0.70;;
18544;SDS011;9402;51.460;7.276;2022-07-26T00:03:32;1.87;;;0.80;;
18544;SDS011;9402;51.460;7.276;2022-07-26T00:05:34;1.50;;;1.10;;
18544;SDS011;9402;51.460;7.276;2022-07-26T00:07:37;3.63;;;1.30;;
18544;SDS011;9402;51.460;7.276;2022-07-26T00:09:40;5.70;;;1.20;;
18544;SDS011;9402;51.460;7.276;2022-07-26T00:11:42;2.43;;;0.83;;
18544;SDS011;9402;51.460;7.276;2022-07-26T00:13:45;3.53;;;0.90;;
18544;SDS011;9402;51.460;7.276;2022-07-26T00:15:47;4.73;;;1.10;;
18544;SDS011;9402;51.460;7.276;2022-07-26T00:17:50;1.40;;;1.00;;
18544;SDS011;9402;51.460;7.276;2022-07-26T00:19:53;6.50;;;1.23;;
18544;SDS011;9402;51.460;7.276;2022-07-26T00:21:56;4.30;;;1.37;;
18544;SDS011;9402;51.460;7.276;2022-07-26T00:24:12;4.30;;;0.80;;
18544;SDS011;9402;51.460;7.276;2022-07-26T00:26:14;6.53;;;1.13;;
18544;SDS011;9402;51.460;7.276;2022-07-26T00:28:17;2.40;;;1.13;;
18544;SDS011;9402;51.460;7.276;2022-07-26T00:30:19;9.53;;;1.03;;
18544;SDS011;9402;51.460;7.276;2022-07-26T00:32:21;2.03;;;0.93;;
18544;SDS011;9402;51.460;7.276;2022-07-26T00:34:24;1.17;;;0.80;;
18544;SDS011;9402;51.460;7.276;2022-07-26T00:36:28;4.00;;;1.10;;
18544;SDS011;9402;51.460;7.276;2022-07-26T00:38:30;1.50;;;1.00;;
18544;SDS011;9402;51.460;7.276;2022-07-26T00:40:32;5.17;;;0.93;;
18544;SDS011;9402;51.460;7.276;2022-07-26T00:42:35;2.63;;;0.90;;
18544;SDS011;9402;51.460;7.276;2022-07-26T00:44:38;6.33;;;1.30;;
18544;SDS011;9402;51.460;7.276;2022-07-26T00:46:41;2.37;;;0.90;;
18544;SDS011;9402;51.460;7.276;2022-07-26T00:48:43;3.47;;;1.20;;
18544;SDS011;9402;51.460;7.276;2022-07-26T00:50:45;2.70;;;1.00;;
18544;SDS011;9402;51.460;7.276;2022-07-26T00:52:49;3.90;;;1.37;;
18544;SDS011;9402;51.460;7.276;2022-07-26T00:54:52;4.57;;;1.37;;
18544;SDS011;9402;51.460;7.276;2022-07-26T00:56:55;1.90;;;1.00;;
18544;SDS011;9402;51.460;7.276;2022-07-26T00:58:57;4.00;;;1.20;;
18544;SDS011;9402;51.460;7.276;2022-07-26T01:00:59;4.87;;;1.40;;
18544;SDS011;9402;51.460;7.276;2022-07-26T01:03:02;2.13;;;1.17;;
18544;SDS011;9402;51.460;7.276;2022-07-26T01:05:05;6.20;;;1.97;;
18544;SDS011;9402;51.460;7.276;2022-07-26T01:07:08;3.57;;;1.00;;
18544;SDS011;9402;51.460;7.276;2022-07-26T01:09:12;2.60;;;1.10;;
18544;SDS011;9402;51.460;7.276;2022-07-26T01:11:15;9.10;;;1.63;;
18544;SDS011;9402;51.460;7.276;2022-07-26T01:13:18;1.83;;;1.00;;
18544;SDS011;9402;51.460;7.276;2022-07-26T01:15:20;3.73;;;1.27;;
18544;SDS011;9402;51.460;7.276;2022-07-26T01:17:23;2.00;;;1.00;;
18544;SDS011;9402;51.460;7.276;2022-07-26T01:19:25;3.43;;;0.90;;
18544;SDS011;9402;51.460;7.276;2022-07-26T01:21:29;3.07;;;1.30;;
18544;SDS011;9402;51.460;7.276;2022-07-26T01:23:32;7.80;;;1.20;;
18544;SDS011;9402;51.460;7.276;2022-07-26T01:25:35;1.97;;;1.17;;
18544;SDS011;9402;51.460;7.276;2022-07-26T01:27:38;4.40;;;1.13;;
18544;SDS011;9402;51.460;7.276;2022-07-26T01:29:40;3.13;;;1.43;;
18544;SDS011;9402;51.460;7.276;2022-07-26T01:31:43;6.10;;;1.40;;
18544;SDS011;9402;51.460;7.276;2022-07-26T01:33:45;7.17;;;1.53;;
18544;SDS011;9402;51.460;7.276;2022-07-26T01:35:47;6.07;;;1.07;;
18544;SDS011;9402;51.460;7.276;2022-07-26T01:37:51;3.77;;;1.33;;
18544;SDS011;9402;51.460;7.276;2022-07-26T01:39:54;4.30;;;2.13;;
18544;SDS011;9402;51.460;7.276;2022-07-26T01:41:56;2.60;;;1.10;;
18544;SDS011;9402;51.460;7.276;2022-07-26T01:43:58;2.80;;;1.27;;
18544;SDS011;9402;51.460;7.276;2022-07-26T01:46:01;5.90;;;1.37;;
18544;SDS011;9402;51.460;7.276;2022-07-26T01:48:04;3.53;;;1.40;;
18544;SDS011;9402;51.460;7.276;2022-07-26T01:50:07;2.40;;;1.10;;
18544;SDS011;9402;51.460;7.276;2022-07-26T01:52:10;9.77;;;1.60;;
18544;SDS011;9402;51.460;7.276;2022-07-26T01:54:14;1.90;;;1.00;;
18544;SDS011;9402;51.460;7.276;2022-07-26T01:56:16;3.00;;;1.27;;
18544;SDS011;9402;51.460;7.276;2022-07-26T01:58:18;11.37;;;1.60;;
18544;SDS011;9402;51.460;7.276;2022-07-26T02:00:21;4.50;;;1.23;;
18544;SDS011;9402;51.460;7.276;2022-07-26T02:02:23;1.97;;;1.37;;
18544;SDS011;9402;51.460;7.276;2022-07-26T02:04:26;2.20;;;1.10;;
18544;SDS011;9402;51.460;7.276;2022-07-26T02:06:45;3.37;;;1.57;;
18544;SDS011;9402;51.460;7.276;2022-07-26T02:08:48;2.13;;;1.20;;
18544;SDS011;9402;51.460;7.276;2022-07-26T02:10:51;3.23;;;1.17;;
18544;SDS011;9402;51.460;7.276;2022-07-26T02:13:03;7.47;;;1.57;;
18544;SDS011;9402;51.460;7.276;2022-07-26T02:15:06;8.53;;;1.30;;
18544;SDS011;9402;51.460;7.276;2022-07-26T02:17:09;2.90;;;1.40;;
18544;SDS011;9402;51.460;7.276;2022-07-26T02:19:12;3.07;;;1.10;;
18544;SDS011;9402;51.460;7.276;2022-07-26T02:21:14;2.43;;;1.03;;
18544;SDS011;9402;51.460;7.276;2022-07-26T02:23:16;14.23;;;1.60;;
18544;SDS011;9402;51.460;7.276;2022-07-26T02:25:19;3.23;;;1.40;;
18544;SDS011;9402;51.460;7.276;2022-07-26T02:27:23;8.50;;;1.73;;
18544;SDS011;9402;51.460;7.276;2022-07-26T02:29:25;7.50;;;1.73;;
18544;SDS011;9402;51.460;7.276;2022-07-26T02:31:28;3.17;;;1.40;;
18544;SDS011;9402;51.460;7.276;2022-07-26T02:33:30;3.17;;;1.53;;
18544;SDS011;9402;51.460;7.276;2022-07-26T02:35:33;3.93;;;1.70;;
18544;SDS011;9402;51.460;7.276;2022-07-26T02:37:35;3.63;;;1.23;;
18544;SDS011;9402;51.460;7.276;2022-07-26T02:39:39;6.63;;;1.47;;
18544;SDS011;9402;51.460;7.276;2022-07-26T02:41:41;2.33;;;1.27;;
18544;SDS011;9402;51.460;7.276;2022-07-26T02:43:45;4.00;;;1.13;;
18544;SDS011;9402;51.460;7.276;2022-07-26T02:45:47;9.03;;;1.60;;
18544;SDS011;9402;51.460;7.276;2022-07-26T02:47:50;7.53;;;1.50;;
18544;SDS011;9402;51.460;7.276;2022-07-26T02:49:53;4.10;;;1.00;;
18544;SDS011;9402;51.460;7.276;2022-07-26T02:51:56;8.57;;;1.20;;
18544;SDS011;9402;51.460;7.276;2022-07-26T02:53:58;3.13;;;1.20;;
18544;SDS011;9402;51.460;7.276;2022-07-26T02:56:00;5.70;;;1.30;;
18544;SDS011;9402;51.460;7.276;2022-07-26T02:58:02;6.40;;;1.43;;
18544;SDS011;9402;51.460;7.276;2022-07-26T03:00:07;2.60;;;1.27;;
18544;SDS011;9402;51.460;7.276;2022-07-26T03:02:11;2.17;;;1.10;;
18544;SDS011;9402;51.460;7.276;2022-07-26T03:04:13;5.70;;;1.20;;
18544;SDS011;9402;51.460;7.276;2022-07-26T03:06:16;6.07;;;1.23;;
18544;SDS011;9402;51.460;7.276;2022-07-26T03:08:18;4.83;;;1.20;;
18544;SDS011;9402;51.460;7.276;2022-07-26T03:10:20;12.63;;;1.23;;
18544;SDS011;9402;51.460;7.276;2022-07-26T03:12:23;5.20;;;1.30;;
18544;SDS011;9402;51.460;7.276;2022-07-26T03:14:25;1.87;;;1.10;;
18544;SDS011;9402;51.460;7.276;2022-07-26T03:16:29;2.67;;;1.00;;
18544;SDS011;9402;51.460;7.276;2022-07-26T03:18:31;5.37;;;1.40;;
18544;SDS011;9402;51.460;7.276;2022-07-26T03:20:33;5.27;;;1.60;;
18544;SDS011;9402;51.460;7.276;2022-07-26T03:22:36;2.60;;;1.00;;
18544;SDS011;9402;51.460;7.276;2022-07-26T03:24:38;2.50;;;0.93;;
18544;SDS011;9402;51.460;7.276;2022-07-26T03:26:40;4.97;;;1.20;;
18544;SDS011;9402;51.460;7.276;2022-07-26T03:28:42;14.23;;;1.83;;
18544;SDS011;9402;51.460;7.276;2022-07-26T03:30:45;4.80;;;1.20;;
18544;SDS011;9402;51.460;7.276;2022-07-26T03:32:48;8.83;;;2.10;;
18544;SDS011;9402;51.460;7.276;2022-07-26T03:34:51;2.70;;;1.20;;
18544;SDS011;9402;51.460;7.276;2022-07-26T03:36:53;2.30;;;1.30;;
18544;SDS011;9402;51.460;7.276;2022-07-26T03:38:55;4.53;;;1.50;;
18544;SDS011;9402;51.460;7.276;2022-07-26T03:40:58;9.87;;;1.83;;
18544;SDS011;9402;51.460;7.276;2022-07-26T03:43:00;6.67;;;2.30;;
18544;SDS011;9402;51.460;7.276;2022-07-26T03:45:03;6.67;;;1.60;;
18544;SDS011;9402;51.460;7.276;2022-07-26T03:47:05;6.37;;;1.17;;
18544;SDS011;9402;51.460;7.276;2022-07-26T03:49:09;8.23;;;2.20;;
18544;SDS011;9402;51.460;7.276;2022-07-26T03:51:11;7.80;;;1.60;;
18544;SDS011;9402;51.460;7.276;2022-07-26T03:53:14;7.13;;;1.53;;
18544;SDS011;9402;51.460;7.276;2022-07-26T03:55:16;6.83;;;1.60;;
18544;SDS011;9402;51.460;7.276;2022-07-26T03:57:36;2.30;;;1.27;;
18544;SDS011;9402;51.460;7.276;2022-07-26T03:59:38;6.00;;;1.80;;
18544;SDS011;9402;51.460;7.276;2022-07-26T04:01:41;3.23;;;1.20;;
18544;SDS011;9402;51.460;7.276;2022-07-26T04:03:43;12.20;;;2.20;;
18544;SDS011;9402;51.460;7.276;2022-07-26T04:05:47;7.63;;;1.60;;
18544;SDS011;9402;51.460;7.276;2022-07-26T04:07:49;6.13;;;1.80;;
18544;SDS011;9402;51.460;7.276;2022-07-26T04:09:51;11.83;;;1.53;;
18544;SDS011;9402;51.460;7.276;2022-07-26T04:11:53;4.90;;;1.57;;
18544;SDS011;9402;51.460;7.276;2022-07-26T04:13:56;8.53;;;2.00;;
18544;SDS011;9402;51.460;7.276;2022-07-26T04:15:58;8.50;;;2.20;;
18544;SDS011;9402;51.460;7.276;2022-07-26T04:18:03;3.13;;;1.63;;
18544;SDS011;9402;51.460;7.276;2022-07-26T04:20:06;4.00;;;2.37;;
18544;SDS011;9402;51.460;7.276;2022-07-26T04:22:10;3.83;;;1.53;;
18544;SDS011;9402;51.460;7.276;2022-07-26T04:24:13;10.87;;;3.30;;
18544;SDS011;9402;51.460;7.276;2022-07-26T04:26:15;4.10;;;2.23;;
18544;SDS011;9402;51.460;7.276;2022-07-26T04:28:17;5.10;;;2.67;;
18544;SDS011;9402;51.460;7.276;2022-07-26T04:30:20;8.37;;;2.60;;
18544;SDS011;9402;51.460;7.276;2022-07-26T04:32:22;5.00;;;1.87;;
18544;SDS011;9402;51.460;7.276;2022-07-26T04:34:24;8.70;;;2.63;;
18544;SDS011;9402;51.460;7.276;2022-07-26T04:36:26;10.43;;;1.80;;
18544;SDS011;9402;51.460;7.276;2022-07-26T04:38:30;4.70;;;2.07;;
18544;SDS011;9402;51.460;7.276;2022-07-26T04:40:32;4.40;;;1.63;;
18544;SDS011;9402;51.460;7.276;2022-07-26T04:42:35;6.90;;;1.80;;
18544;SDS011;9402;51.460;7.276;2022-07-26T04:44:37;3.47;;;1.60;;
18544;SDS011;9402;51.460;7.276;2022-07-26T04:46:39;7.40;;;1.90;;
18544;SDS011;9402;51.460;7.276;2022-07-26T04:48:42;4.43;;;1.63;;
18544;SDS011;9402;51.460;7.276;2022-07-26T04:50:44;6.70;;;2.20;;
18544;SDS011;9402;51.460;7.276;2022-07-26T04:52:46;5.47;;;1.57;;
18544;SDS011;9402;51.460;7.276;2022-07-26T04:54:50;6.87;;;1.67;;
18544;SDS011;9402;51.460;7.276;2022-07-26T04:56:53;7.40;;;1.80;;
18544;SDS011;9402;51.460;7.276;2022-07-26T04:58:55;4.60;;;1.97;;
18544;SDS011;9402;51.460;7.276;2022-07-26T05:00:57;12.23;;;1.87;;
18544;SDS011;9402;51.460;7.276;2022-07-26T05:03:00;7.70;;;2.00;;
18544;SDS011;9402;51.460;7.276;2022-07-26T05:05:03;10.30;;;1.70;;
18544;SDS011;9402;51.460;7.276;2022-07-26T05:07:06;9.97;;;2.03;;
18544;SDS011;9402;51.460;7.276;2022-07-26T05:09:08;2.90;;;1.53;;
18544;SDS011;9402;51.460;7.276;2022-07-26T05:11:12;7.03;;;1.97;;
18544;SDS011;9402;51.460;7.276;2022-07-26T05:13:14;5.37;;;1.97;;
18544;SDS011;9402;51.460;7.276;2022-07-26T05:15:17;6.30;;;1.93;;
18544;SDS011;9402;51.460;7.276;2022-07-26T05:17:19;4.93;;;2.00;;
18544;SDS011;9402;51.460;7.276;2022-07-26T05:19:21;6.70;;;1.63;;
18544;SDS011;9402;51.460;7.276;2022-07-26T05:21:24;5.60;;;1.80;;
18544;SDS011;9402;51.460;7.276;2022-07-26T05:23:27;5.33;;;1.50;;
18544;SDS011;9402;51.460;7.276;2022-07-26T05:25:29;7.13;;;1.97;;
18544;SDS011;9402;51.460;7.276;2022-07-26T05:27:33;7.53;;;1.70;;
18544;SDS011;9402;51.460;7.276;2022-07-26T05:29:35;5.43;;;1.40;;
18544;SDS011;9402;51.460;7.276;2022-07-26T05:31:38;3.33;;;1.30;;
18544;SDS011;9402;51.460;7.276;2022-07-26T05:33:40;4.17;;;1.70;;
18544;SDS011;9402;51.460;7.276;2022-07-26T05:35:42;8.77;;;1.90;;
18544;SDS011;9402;51.460;7.276;2022-07-26T05:37:45;5.47;;;1.33;;
18544;SDS011;9402;51.460;7.276;2022-07-26T05:39:47;5.60;;;1.70;;
18544;SDS011;9402;51.460;7.276;2022-07-26T05:41:49;6.90;;;1.80;;
18544;SDS011;9402;51.460;7.276;2022-07-26T05:43:53;3.30;;;1.37;;
18544;SDS011;9402;51.460;7.276;2022-07-26T05:45:55;9.43;;;2.10;;
18544;SDS011;9402;51.460;7.276;2022-07-26T05:47:58;3.57;;;1.87;;
18544;SDS011;9402;51.460;7.276;2022-07-26T05:50:00;11.37;;;1.90;;
18544;SDS011;9402;51.460;7.276;2022-07-26T05:52:03;7.83;;;1.70;;
18544;SDS011;9402;51.460;7.276;2022-07-26T05:54:05;2.50;;;1.33;;
18544;SDS011;9402;51.460;7.276;2022-07-26T05:56:08;8.17;;;1.73;;
18544;SDS011;9402;51.460;7.276;2022-07-26T05:58:10;6.17;;;2.03;;
18544;SDS011;9402;51.460;7.276;2022-07-26T06:00:14;8.30;;;1.90;;
18544;SDS011;9402;51.460;7.276;2022-07-26T06:02:16;4.47;;;1.37;;
18544;SDS011;9402;51.460;7.276;2022-07-26T06:04:19;7.03;;;1.83;;
18544;SDS011;9402;51.460;7.276;2022-07-26T06:06:21;4.10;;;1.90;;
18544;SDS011;9402;51.460;7.276;2022-07-26T06:08:24;12.97;;;2.40;;
18544;SDS011;9402;51.460;7.276;2022-07-26T06:10:27;9.87;;;1.90;;
18544;SDS011;9402;51.460;7.276;2022-07-26T06:12:29;5.10;;;1.83;;
18544;SDS011;9402;51.460;7.276;2022-07-26T06:14:31;7.20;;;2.20;;
18544;SDS011;9402;51.460;7.276;2022-07-26T06:16:35;3.53;;;1.80;;
18544;SDS011;9402;51.460;7.276;2022-07-26T06:18:37;17.17;;;2.40;;
18544;SDS011;9402;51.460;7.276;2022-07-26T06:20:40;11.67;;;2.37;;
18544;SDS011;9402;51.460;7.276;2022-07-26T06:22:43;8.17;;;1.93;;
18544;SDS011;9402;51.460;7.276;2022-07-26T06:24:45;10.77;;;1.83;;
18544;SDS011;9402;51.460;7.276;2022-07-26T06:26:48;16.37;;;2.20;;
18544;SDS011;9402;51.460;7.276;2022-07-26T06:28:52;6.30;;;2.10;;
18544;SDS011;9402;51.460;7.276;2022-07-26T06:30:54;9.10;;;2.50;;
18544;SDS011;9402;51.460;7.276;2022-07-26T06:32:58;7.23;;;2.63;;
18544;SDS011;9402;51.460;7.276;2022-07-26T06:35:00;16.70;;;2.70;;
18544;SDS011;9402;51.460;7.276;2022-07-26T06:37:03;11.13;;;2.30;;
18544;SDS011;9402;51.460;7.276;2022-07-26T06:39:05;9.10;;;2.40;;
18544;SDS011;9402;51.460;7.276;2022-07-26T06:41:08;9.97;;;2.83;;
18544;SDS011;9402;51.460;7.276;2022-07-26T06:43:10;7.77;;;3.20;;
18544;SDS011;9402;51.460;7.276;2022-07-26T06:45:12;10.27;;;3.37;;
18544;SDS011;9402;51.460;7.276;2022-07-26T06:47:15;8.43;;;3.43;;
18544;SDS011;9402;51.460;7.276;2022-07-26T06:49:18;7.20;;;3.80;;
18544;SDS011;9402;51.460;7.276;2022-07-26T06:51:21;8.50;;;3.37;;
18544;SDS011;9402;51.460;7.276;2022-07-26T06:53:23;10.63;;;3.57;;
18544;SDS011;9402;51.460;7.276;2022-07-26T06:55:25;13.33;;;4.77;;
18544;SDS011;9402;51.460;7.276;2022-07-26T06:57:28;20.53;;;4.70;;
18544;SDS011;9402;51.460;7.276;2022-07-26T06:59:30;11.53;;;4.90;;
18544;SDS011;9402;51.460;7.276;2022-07-26T07:01:32;15.20;;;4.50;;
18544;SDS011;9402;51.460;7.276;2022-07-26T07:03:35;16.43;;;4.40;;
18544;SDS011;9402;51.460;7.276;2022-07-26T07:05:39;17.50;;;6.10;;
18544;SDS011;9402;51.460;7.276;2022-07-26T07:07:41;9.83;;;4.70;;
18544;SDS011;9402;51.460;7.276;2022-07-26T07:09:43;16.20;;;5.03;;
18544;SDS011;9402;51.460;7.276;2022-07-26T07:11:46;10.80;;;5.17;;
18544;SDS011;9402;51.460;7.276;2022-07-26T07:13:48;12.77;;;5.20;;
18544;SDS011;9402;51.460;7.276;2022-07-26T07:15:50;9.37;;;4.60;;
18544;SDS011;9402;51.460;7.276;2022-07-26T07:17:53;8.07;;;4.00;;
18544;SDS011;9402;51.460;7.276;2022-07-26T07:19:55;15.50;;;4.43;;
18544;SDS011;9402;51.460;7.276;2022-07-26T07:22:01;12.63;;;5.93;;
18544;SDS011;9402;51.460;7.276;2022-07-26T07:24:04;11.07;;;4.43;;
18544;SDS011;9402;51.460;7.276;2022-07-26T07:26:06;12.67;;;4.27;;
18544;SDS011;9402;51.460;7.276;2022-07-26T07:28:09;9.57;;;4.70;;
18544;SDS011;9402;51.460;7.276;2022-07-26T07:30:11;7.53;;;4.57;;
18544;SDS011;9402;51.460;7.276;2022-07-26T07:32:16;13.67;;;5.80;;
18544;SDS011;9402;51.460;7.276;2022-07-26T07:34:18;11.00;;;5.00;;
18544;SDS011;9402;51.460;7.276;2022-07-26T07:36:21;10.07;;;5.33;;
18544;SDS011;9402;51.460;7.276;2022-07-26T07:38:25;8.20;;;4.53;;
18544;SDS011;9402;51.460;7.276;2022-07-26T07:40:28;11.60;;;5.00;;
18544;SDS011;9402;51.460;7.276;2022-07-26T07:42:30;10.20;;;4.60;;
18544;SDS011;9402;51.460;7.276;2022-07-26T07:44:33;10.43;;;4.60;;
18544;SDS011;9402;51.460;7.276;2022-07-26T07:46:35;9.87;;;4.70;;
18544;SDS011;9402;51.460;7.276;2022-07-26T07:48:37;12.53;;;4.70;;
18544;SDS011;9402;51.460;7.276;2022-07-26T07:50:40;8.87;;;4.73;;
18544;SDS011;9402;51.460;7.276;2022-07-26T07:52:43;7.10;;;4.30;;
18544;SDS011;9402;51.460;7.276;2022-07-26T07:54:47;18.87;;;4.93;;
18544;SDS011;9402;51.460;7.276;2022-07-26T07:56:49;6.50;;;4.30;;
18544;SDS011;9402;51.460;7.276;2022-07-26T07:58:54;9.30;;;4.07;;
18544;SDS011;9402;51.460;7.276;2022-07-26T08:00:56;12.83;;;4.50;;
18544;SDS011;9402;51.460;7.276;2022-07-26T08:02:58;5.50;;;3.60;;
18544;SDS011;9402;51.460;7.276;2022-07-26T08:05:00;12.03;;;4.87;;
18544;SDS011;9402;51.460;7.276;2022-07-26T08:07:03;10.93;;;4.47;;
18544;SDS011;9402;51.460;7.276;2022-07-26T08:09:06;18.80;;;4.10;;
18544;SDS011;9402;51.460;7.276;2022-07-26T08:11:09;9.67;;;4.40;;
18544;SDS011;9402;51.460;7.276;2022-07-26T08:13:12;8.63;;;5.10;;
18544;SDS011;9402;51.460;7.276;2022-07-26T08:15:14;6.07;;;3.90;;
18544;SDS011;9402;51.460;7.276;2022-07-26T08:17:16;14.63;;;4.67;;
18544;SDS011;9402;51.460;7.276;2022-07-26T08:19:19;19.93;;;5.40;;
18544;SDS011;9402;51.460;7.276;2022-07-26T08:21:21;7.37;;;4.90;;
18544;SDS011;9402;51.460;7.276;2022-07-26T08:23:23;9.23;;;4.90;;
18544;SDS011;9402;51.460;7.276;2022-07-26T08:25:26;12.20;;;6.17;;
18544;SDS011;9402;51.460;7.276;2022-07-26T08:27:30;7.80;;;5.70;;
18544;SDS011;9402;51.460;7.276;2022-07-26T08:29:32;10.70;;;5.90;;
18544;SDS011;9402;51.460;7.276;2022-07-26T08:31:35;14.33;;;5.50;;
18544;SDS011;9402;51.460;7.276;2022-07-26T08:33:37;15.73;;;6.90;;
18544;SDS011;9402;51.460;7.276;2022-07-26T08:35:39;14.70;;;6.30;;
18544;SDS011;9402;51.460;7.276;2022-07-26T08:37:41;15.77;;;5.53;;
18544;SDS011;9402;51.460;7.276;2022-07-26T08:39:44;16.13;;;6.63;;
18544;SDS011;9402;51.460;7.276;2022-07-26T08:41:46;11.90;;;5.60;;
18544;SDS011;9402;51.460;7.276;2022-07-26T08:43:50;9.50;;;6.00;;
18544;SDS011;9402;51.460;7.276;2022-07-26T08:45:53;7.27;;;5.47;;
18544;SDS011;9402;51.460;7.276;2022-07-26T08:48:01;7.70;;;4.93;;
18544;SDS011;9402;51.460;7.276;2022-07-26T08:50:04;12.30;;;6.30;;
18544;SDS011;9402;51.460;7.276;2022-07-26T08:52:07;18.80;;;5.10;;
18544;SDS011;9402;51.460;7.276;2022-07-26T08:54:11;6.90;;;4.40;;
18544;SDS011;9402;51.460;7.276;2022-07-26T08:56:14;8.73;;;4.60;;
18544;SDS011;9402;51.460;7.276;2022-07-26T08:58:16;8.57;;;5.13;;
18544;SDS011;9402;51.460;7.276;2022-07-26T09:00:21;11.40;;;4.60;;
18544;SDS011;9402;51.460;7.276;2022-07-26T09:02:33;10.53;;;4.50;;
18544;SDS011;9402;51.460;7.276;2022-07-26T09:04:42;4.93;;;3.93;;
18544;SDS011;9402;51.460;7.276;2022-07-26T09:06:53;7.77;;;5.03;;
18544;SDS011;9402;51.460;7.276;2022-07-26T09:09:08;7.53;;;4.70;;
18544;SDS011;9402;51.460;7.276;2022-07-26T09:11:28;8.00;;;4.33;;
18544;SDS011;9402;51.460;7.276;2022-07-26T09:18:23;9.17;;;4.90;;
18544;SDS011;9402;51.460;7.276;2022-07-26T09:20:27;10.93;;;5.30;;
18544;SDS011;9402;51.460;7.276;2022-07-26T09:22:30;8.90;;;3.50;;
18544;SDS011;9402;51.460;7.276;2022-07-26T09:24:33;7.90;;;5.00;;
18544;SDS011;9402;51.460;7.276;2022-07-26T09:26:37;10.00;;;4.10;;
18544;SDS011;9402;51.460;7.276;2022-07-26T09:28:39;5.30;;;3.07;;
18544;SDS011;9402;51.460;7.276;2022-07-26T09:30:41;9.10;;;3.37;;
18544;SDS011;9402;51.460;7.276;2022-07-26T09:32:58;7.10;;;3.17;;
18544;SDS011;9402;51.460;7.276;2022-07-26T09:35:08;11.63;;;3.30;;
18544;SDS011;9402;51.460;7.276;2022-07-26T09:37:12;5.80;;;3.40;;
18544;SDS011;9402;51.460;7.276;2022-07-26T09:39:14;5.47;;;2.80;;
18544;SDS011;9402;51.460;7.276;2022-07-26T09:41:17;9.13;;;3.10;;
18544;SDS011;9402;51.460;7.276;2022-07-26T09:43:20;5.13;;;3.07;;
18544;SDS011;9402;51.460;7.276;2022-07-26T09:45:23;5.90;;;3.03;;
18544;SDS011;9402;51.460;7.276;2022-07-26T09:47:35;6.30;;;3.60;;
18544;SDS011;9402;51.460;7.276;2022-07-26T09:49:40;5.23;;;2.07;;
18544;SDS011;9402;51.460;7.276;2022-07-26T09:51:43;7.53;;;2.40;;
18544;SDS011;9402;51.460;7.276;2022-07-26T09:53:46;2.70;;;2.23;;
18544;SDS011;9402;51.460;7.276;2022-07-26T09:55:55;5.03;;;2.63;;
18544;SDS011;9402;51.460;7.276;2022-07-26T09:57:57;13.87;;;2.57;;
18544;SDS011;9402;51.460;7.276;2022-07-26T10:00:03;6.93;;;2.83;;
18544;SDS011;9402;51.460;7.276;2022-07-26T10:02:06;8.30;;;2.70;;
18544;SDS011;9402;51.460;7.276;2022-07-26T10:04:09;6.07;;;2.70;;
18544;SDS011;9402;51.460;7.276;2022-07-26T10:06:13;5.67;;;2.20;;
18544;SDS011;9402;51.460;7.276;2022-07-26T10:08:16;2.80;;;2.10;;
18544;SDS011;9402;51.460;7.276;2022-07-26T10:10:20;7.40;;;2.20;;
18544;SDS011;9402;51.460;7.276;2022-07-26T10:12:24;7.83;;;3.00;;
18544;SDS011;9402;51.460;7.276;2022-07-26T10:14:35;7.23;;;2.90;;
18544;SDS011;9402;51.460;7.276;2022-07-26T10:16:39;4.37;;;2.70;;
18544;SDS011;9402;51.460;7.276;2022-07-26T10:18:42;7.40;;;2.37;;
18544;SDS011;9402;51.460;7.276;2022-07-26T10:20:48;9.90;;;2.70;;
18544;SDS011;9402;51.460;7.276;2022-07-26T10:22:52;4.67;;;3.40;;
18544;SDS011;9402;51.460;7.276;2022-07-26T10:24:56;2.90;;;2.70;;
18544;SDS011;9402;51.460;7.276;2022-07-26T10:26:59;7.27;;;3.63;;
18544;SDS011;9402;51.460;7.276;2022-07-26T10:29:18;8.83;;;3.67;;
18544;SDS011;9402;51.460;7.276;2022-07-26T10:31:28;9.17;;;2.93;;
18544;SDS011;9402;51.460;7.276;2022-07-26T10:33:31;6.87;;;3.87;;
18544;SDS011;9402;51.460;7.276;2022-07-26T10:35:42;13.57;;;4.10;;
18544;SDS011;9402;51.460;7.276;2022-07-26T10:37:57;6.73;;;3.80;;
18544;SDS011;9402;51.460;7.276;2022-07-26T10:40:19;4.50;;;3.30;;
18544;SDS011;9402;51.460;7.276;2022-07-26T10:42:24;5.30;;;3.53;;
18544;SDS011;9402;51.460;7.276;2022-07-26T10:44:43;6.07;;;3.93;;
18544;SDS011;9402;51.460;7.276;2022-07-26T10:46:59;4.37;;;3.30;;
18544;SDS011;9402;51.460;7.276;2022-07-26T10:49:04;3.00;;;2.43;;
18544;SDS011;9402;51.460;7.276;2022-07-26T10:51:09;2.20;;;1.80;;
18544;SDS011;9402;51.460;7.276;2022-07-26T10:53:26;2.20;;;1.37;;
18544;SDS011;9402;51.460;7.276;2022-07-26T10:55:29;9.67;;;1.50;;
18544;SDS011;9402;51.460;7.276;2022-07-26T10:57:32;5.57;;;2.67;;
18544;SDS011;9402;51.460;7.276;2022-07-26T10:59:35;2.50;;;2.10;;
18544;SDS011;9402;51.460;7.276;2022-07-26T11:01:39;4.37;;;2.40;;
18544;SDS011;9402;51.460;7.276;2022-07-26T11:03:44;7.07;;;2.80;;
18544;SDS011;9402;51.460;7.276;2022-07-26T11:05:46;4.77;;;2.57;;
18544;SDS011;9402;51.460;7.276;2022-07-26T11:07:53;3.93;;;2.30;;
18544;SDS011;9402;51.460;7.276;2022-07-26T11:09:59;12.13;;;2.17;;
18544;SDS011;9402;51.460;7.276;2022-07-26T11:12:13;8.83;;;3.27;;
18544;SDS011;9402;51.460;7.276;2022-07-26T11:14:16;3.83;;;2.43;;
18544;SDS011;9402;51.460;7.276;2022-07-26T11:16:18;3.13;;;2.63;;
18544;SDS011;9402;51.460;7.276;2022-07-26T11:18:22;3.30;;;2.70;;
18544;SDS011;9402;51.460;7.276;2022-07-26T11:20:29;3.17;;;2.60;;
18544;SDS011;9402;51.460;7.276;2022-07-26T11:22:32;3.50;;;2.77;;
18544;SDS011;9402;51.460;7.276;2022-07-26T11:24:35;2.50;;;2.30;;
18544;SDS011;9402;51.460;7.276;2022-07-26T11:26:42;7.43;;;3.03;;
18544;SDS011;9402;51.460;7.276;2022-07-26T11:28:50;3.20;;;2.67;;
18544;SDS011;9402;51.460;7.276;2022-07-26T11:30:54;4.47;;;2.23;;
18544;SDS011;9402;51.460;7.276;2022-07-26T11:32:57;8.40;;;2.97;;
18544;SDS011;9402;51.460;7.276;2022-07-26T11:35:00;3.43;;;1.70;;
18544;SDS011;9402;51.460;7.276;2022-07-26T11:37:04;1.73;;;1.57;;
18544;SDS011;9402;51.460;7.276;2022-07-26T11:39:07;5.40;;;1.90;;
18544;SDS011;9402;51.460;7.276;2022-07-26T11:41:12;2.13;;;1.43;;
18544;SDS011;9402;51.460;7.276;2022-07-26T11:43:16;1.80;;;1.63;;
18544;SDS011;9402;51.460;7.276;2022-07-26T11:45:19;2.13;;;1.27;;
18544;SDS011;9402;51.460;7.276;2022-07-26T11:47:22;5.13;;;1.47;;
18544;SDS011;9402;51.460;7.276;2022-07-26T11:49:24;1.93;;;1.30;;
18544;SDS011;9402;51.460;7.276;2022-07-26T11:51:28;4.07;;;2.03;;
18544;SDS011;9402;51.460;7.276;2022-07-26T11:53:33;2.30;;;2.00;;
18544;SDS011;9402;51.460;7.276;2022-07-26T11:55:36;1.90;;;1.70;;
18544;SDS011;9402;51.460;7.276;2022-07-26T11:57:38;2.03;;;1.40;;
18544;SDS011;9402;51.460;7.276;2022-07-26T11:59:42;2.63;;;1.40;;
18544;SDS011;9402;51.460;7.276;2022-07-26T12:01:46;3.50;;;1.50;;
18544;SDS011;9402;51.460;7.276;2022-07-26T12:03:49;9.30;;;1.30;;
18544;SDS011;9402;51.460;7.276;2022-07-26T12:06:00;2.17;;;0.90;;
18544;SDS011;9402;51.460;7.276;2022-07-26T12:08:03;2.00;;;0.93;;
18544;SDS011;9402;51.460;7.276;2022-07-26T12:10:07;1.50;;;1.00;;
18544;SDS011;9402;51.460;7.276;2022-07-26T12:12:18;1.77;;;0.97;;
18544;SDS011;9402;51.460;7.276;2022-07-26T12:14:23;1.20;;;0.90;;
18544;SDS011;9402;51.460;7.276;2022-07-26T12:16:34;2.40;;;1.20;;
18544;SDS011;9402;51.460;7.276;2022-07-26T12:18:38;1.83;;;0.70;;
18544;SDS011;9402;51.460;7.276;2022-07-26T12:20:54;1.20;;;0.80;;
18544;SDS011;9402;51.460;7.276;2022-07-26T12:23:00;1.10;;;0.60;;
18544;SDS011;9402;51.460;7.276;2022-07-26T12:25:05;1.47;;;0.70;;
18544;SDS011;9402;51.460;7.276;2022-07-26T12:27:09;6.10;;;0.70;;
18544;SDS011;9402;51.460;7.276;2022-07-26T12:29:25;0.90;;;0.63;;
18544;SDS011;9402;51.460;7.276;2022-07-26T12:31:34;2.17;;;0.70;;
18544;SDS011;9402;51.460;7.276;2022-07-26T12:33:46;1.97;;;0.70;;
18544;SDS011;9402;51.460;7.276;2022-07-26T12:35:48;5.43;;;1.00;;
18544;SDS011;9402;51.460;7.276;2022-07-26T12:37:51;1.63;;;0.70;;
18544;SDS011;9402;51.460;7.276;2022-07-26T12:39:57;1.37;;;0.70;;